LFSG 181630Z AUTO 06009KT 040V110 0900 0750 R26/1300D +TSRA FG FEW007/// SCT016/// BKN024/// ///CB 17/16 Q1014

ElémentsDécodage
LFSG Station météo située sur l'aérodrome de EPINAL Mirecourt
181630Z émis le 18 du mois à 16h30 UTC
AUTO Bulletin édité par un automate
06009KT vent du 060°, 09 noeuds
040V110 vent de direction variable entre 040° et 110°
0900 visibilité horizontale de 900 mètres
0750 visibilité horizontale de 750 mètres
R26/1300D portée visuelle de piste
piste 26, 1300 mètres, en baisse
+TSRA forte pluie d'orage
FG brouillard
FEW007/// nuages rares (1/8 à 2/8) à 700 pieds
 type de nuage non observable
SCT016/// nuages épars (3/8 à 4/8) à 1600 pieds
 type de nuage non observable
BKN024/// nuages morcelés (5/8 à 7/8) à 2400 pieds
 type de nuage non observable
///CB élement non décodé
17/16 température 17°C, point de rosée 16°C
 soit une humidité relative de 94%
Q1014 la pression au niveau de la mer (QNH) est de 1014 hPa